createdAt,value
2022-08-16T00:01:56.802Z,16.51
2022-08-16T00:03:58.104Z,16.58
2022-08-16T00:05:59.466Z,16.52
2022-08-16T00:08:00.639Z,16.5
2022-08-16T00:10:01.708Z,16.39
2022-08-16T00:12:03.373Z,16.44
2022-08-16T00:14:08.540Z,16.38
2022-08-16T00:16:58.066Z,16.33
2022-08-16T00:18:06.785Z,16.31
2022-08-16T00:20:07.812Z,16.51
2022-08-16T00:22:12.921Z,16.58
2022-08-16T00:24:11.686Z,16.55
2022-08-16T00:26:34.048Z,16.67
2022-08-16T00:28:12.947Z,16.6
2022-08-16T00:30:19.171Z,16.64
2022-08-16T00:32:17.916Z,16.72
2022-08-16T00:34:18.147Z,16.62
2022-08-16T00:36:18.398Z,16.56
2022-08-16T00:38:40.428Z,16.48
2022-08-16T00:40:30.745Z,16.39
2022-08-16T00:42:29.880Z,16.39
2022-08-16T00:44:31.795Z,16.34
2022-08-16T00:46:34.528Z,16.3
2022-08-16T00:48:28.843Z,16.29
2022-08-16T00:50:35.701Z,16.18
2022-08-16T00:52:30.429Z,16.18
2022-08-16T00:54:31.110Z,16.24
2022-08-16T00:56:57.307Z,16.3
2022-08-16T00:58:34.684Z,16.17
2022-08-16T01:00:35.345Z,16.15
2022-08-16T01:02:37.041Z,16.15
2022-08-16T01:04:38.151Z,16.11
2022-08-16T01:06:40.691Z,16.01
2022-08-16T01:08:41.115Z,15.89
2022-08-16T01:10:42.144Z,15.8
2022-08-16T01:12:43.985Z,15.7
2022-08-16T01:14:45.497Z,15.59
2022-08-16T01:16:46.700Z,15.58
2022-08-16T01:18:48.256Z,15.56
2022-08-16T01:20:49.805Z,15.43
2022-08-16T01:22:52.293Z,15.38
2022-08-16T01:24:55.317Z,15.31
2022-08-16T01:26:53.499Z,15.25
2022-08-16T01:28:54.798Z,15.2
2022-08-16T01:30:56.274Z,15.19
2022-08-16T01:33:01.702Z,15.22
2022-08-16T01:34:59.599Z,15.23
2022-08-16T01:37:01.366Z,15.3
2022-08-16T01:39:02.426Z,15.2
2022-08-16T01:41:03.865Z,15.15
2022-08-16T01:43:05.831Z,15.08
2022-08-16T01:45:06.784Z,15
2022-08-16T01:47:08.127Z,14.86
2022-08-16T01:49:09.387Z,14.83
2022-08-16T01:51:16.296Z,15.03
2022-08-16T01:53:12.123Z,15.03
2022-08-16T01:55:14.532Z,14.97
2022-08-16T01:57:15.364Z,14.88
2022-08-16T01:59:16.781Z,14.85
2022-08-16T02:01:18.057Z,14.91
2022-08-16T02:03:21.318Z,14.88
2022-08-16T02:05:20.577Z,14.89
2022-08-16T02:07:23.436Z,14.94
2022-08-16T02:09:23.293Z,14.85
2022-08-16T02:11:25.020Z,14.81
2022-08-16T02:13:27.580Z,14.67
2022-08-16T02:15:27.179Z,14.61
2022-08-16T02:17:28.696Z,14.69
2022-08-16T02:19:58.189Z,14.83
2022-08-16T02:21:31.827Z,14.98
2022-08-16T02:23:32.940Z,14.97
2022-08-16T02:25:51.304Z,14.86
2022-08-16T02:27:35.671Z,14.78
2022-08-16T02:29:37.185Z,14.64
2022-08-16T02:32:02.958Z,14.59
2022-08-16T02:33:43.004Z,14.51
2022-08-16T02:35:49.606Z,14.5
2022-08-16T02:37:51.756Z,14.6
2022-08-16T02:39:43.550Z,14.66
2022-08-16T02:41:45.132Z,14.57
2022-08-16T02:43:46.239Z,14.5
2022-08-16T02:45:47.511Z,14.51
2022-08-16T02:47:57.952Z,14.52
2022-08-16T02:49:58.760Z,14.52
2022-08-16T02:51:52.521Z,14.42
2022-08-16T02:53:54.404Z,14.3
2022-08-16T02:55:55.953Z,14.31
2022-08-16T02:57:57.101Z,14.32
2022-08-16T02:59:58.293Z,14.34
2022-08-16T03:01:59.942Z,14.37
2022-08-16T03:04:29.322Z,14.4
2022-08-16T03:06:02.423Z,14.32
2022-08-16T03:08:04.226Z,14.22
2022-08-16T03:10:05.923Z,14.16
2022-08-16T03:12:07.151Z,14.11
2022-08-16T03:14:33.370Z,14.07
2022-08-16T03:16:32.731Z,14.19
2022-08-16T03:18:12.735Z,14.17
2022-08-16T03:20:12.552Z,14.2
2022-08-16T03:25:21.435Z,14.24
2022-08-16T03:26:18.065Z,14.21
2022-08-16T03:32:26.538Z,14.21
2022-08-16T03:34:21.303Z,14.17
2022-08-16T03:36:30.517Z,14.06
2022-08-16T03:38:32.282Z,14.02
2022-08-16T03:40:31.910Z,14.07
2022-08-16T03:42:26.842Z,14.03
2022-08-16T03:44:43.722Z,13.95
2022-08-16T03:46:44.624Z,13.83
2022-08-16T03:48:31.596Z,13.83
2022-08-16T03:50:32.499Z,13.81
2022-08-16T03:52:34.196Z,13.8
2022-08-16T03:54:36.005Z,13.8
2022-08-16T03:56:37.875Z,13.81
2022-08-16T03:58:39.036Z,13.89
2022-08-16T04:00:41.131Z,13.89
2022-08-16T04:02:41.855Z,13.82
2022-08-16T04:04:43.268Z,13.73
2022-08-16T04:06:44.436Z,13.7
2022-08-16T04:08:46.238Z,13.69
2022-08-16T04:10:47.924Z,13.63
2022-08-16T04:12:52.580Z,13.64
2022-08-16T04:14:50.467Z,13.59
2022-08-16T04:16:51.906Z,13.55
2022-08-16T04:18:52.962Z,13.52
2022-08-16T04:20:54.405Z,13.39
2022-08-16T04:22:55.623Z,13.33
2022-08-16T04:24:59.229Z,13.32
2022-08-16T04:26:58.567Z,13.35
2022-08-16T04:29:16.443Z,13.38
2022-08-16T04:31:01.183Z,13.35
2022-08-16T04:33:02.455Z,13.34
2022-08-16T04:35:07.725Z,13.39
2022-08-16T04:37:05.490Z,13.34
2022-08-16T04:39:07.747Z,13.33
2022-08-16T04:41:08.282Z,13.31
2022-08-16T04:43:09.745Z,13.34
2022-08-16T04:45:10.947Z,13.27
2022-08-16T04:47:21.283Z,13.3
2022-08-16T04:49:14.670Z,13.31
2022-08-16T04:51:16.571Z,13.38
2022-08-16T04:53:18.154Z,13.48
2022-08-16T04:55:19.437Z,13.74
2022-08-16T04:57:21.166Z,13.92
2022-08-16T05:01:24.164Z,14.92
2022-08-16T05:03:26.116Z,15.29
2022-08-16T05:05:30.798Z,15.66
2022-08-16T05:07:28.240Z,16.15
2022-08-16T05:09:29.892Z,15.85
2022-08-16T05:11:31.995Z,16.19
2022-08-16T05:13:35.145Z,16.5
2022-08-16T05:15:34.409Z,16.54
2022-08-16T05:17:36.030Z,16.36
2022-08-16T05:19:37.308Z,16.58
2022-08-16T05:21:38.713Z,16.54
2022-08-16T05:23:39.422Z,16.64
2022-08-16T05:25:47.800Z,16.37
2022-08-16T05:27:42.823Z,16.1
2022-08-16T05:29:56.970Z,16.35
2022-08-16T05:31:48.494Z,16.64
2022-08-16T05:33:46.793Z,17.28
2022-08-16T05:35:55.303Z,17.05
2022-08-16T05:37:49.531Z,16.97
2022-08-16T05:39:51.260Z,16.85
2022-08-16T05:41:52.168Z,16.9
2022-08-16T05:42:36.100Z,16.94
2022-08-16T05:44:37.136Z,16.89
2022-08-16T05:46:43.518Z,16.81
2022-08-16T05:48:39.205Z,17.12
2022-08-16T05:50:41.643Z,17.38
2022-08-16T05:52:44.829Z,17.57
2022-08-16T05:54:47.033Z,17
2022-08-16T05:56:44.222Z,16.91
2022-08-16T05:58:45.800Z,17.25
2022-08-16T06:00:46.953Z,17.15
2022-08-16T06:02:48.480Z,17.11
2022-08-16T06:04:49.663Z,17.25
2022-08-16T06:06:55.923Z,17.3
2022-08-16T06:08:52.141Z,17.33
2022-08-16T06:11:05.607Z,17.4
2022-08-16T06:12:55.902Z,17.96
2022-08-16T06:14:56.370Z,18.79
2022-08-16T06:16:57.394Z,19.3
2022-08-16T06:18:58.288Z,19.61
2022-08-16T06:20:59.950Z,19.79
2022-08-16T06:23:03.842Z,20.02
2022-08-16T06:25:02.277Z,19.84
2022-08-16T06:27:03.993Z,20.05
2022-08-16T06:29:07.564Z,20.35
2022-08-16T06:31:06.721Z,20.86
2022-08-16T06:33:07.582Z,21.06
2022-08-16T06:37:09.789Z,21.28
2022-08-16T06:39:11.259Z,21.33
2022-08-16T06:41:13.771Z,21.25
2022-08-16T06:43:14.194Z,20.83
2022-08-16T06:45:15.549Z,20.4
2022-08-16T06:47:16.987Z,20.13
2022-08-16T06:49:17.725Z,20.79
2022-08-16T06:51:19.344Z,21.33
2022-08-16T06:53:20.654Z,22.01
2022-08-16T06:55:21.715Z,22.15
2022-08-16T06:57:22.565Z,22.58
2022-08-16T06:59:25.779Z,22.73
2022-08-16T07:01:43.014Z,21.89
2022-08-16T07:03:27.242Z,21.61
2022-08-16T07:05:41.151Z,22.31
2022-08-16T07:07:32.460Z,22.71
2022-08-16T07:09:30.593Z,22.32
2022-08-16T07:11:46.335Z,22.81
2022-08-16T07:13:57.692Z,22.97
2022-08-16T07:15:33.726Z,23.03
2022-08-16T07:17:35.358Z,23.33
2022-08-16T07:20:04.277Z,22.87
2022-08-16T07:21:42.250Z,23.26
2022-08-16T07:23:39.224Z,23.25
2022-08-16T07:25:40.139Z,22.91
2022-08-16T07:27:40.148Z,23.54
2022-08-16T07:29:41.318Z,23.67
2022-08-16T07:31:42.955Z,23.17
2022-08-16T07:33:51.674Z,23.23
2022-08-16T07:35:49.600Z,23.16
2022-08-16T07:37:46.508Z,23.77
2022-08-16T07:39:47.712Z,24.16
2022-08-16T07:41:49.041Z,23.83
2022-08-16T07:43:50.327Z,24.2
2022-08-16T07:45:52.976Z,24.58
2022-08-16T07:47:53.082Z,24.58
2022-08-16T07:49:57.809Z,24.87
2022-08-16T07:51:56.102Z,25.21
2022-08-16T07:54:02.141Z,24.73
2022-08-16T07:55:57.972Z,24.67
2022-08-16T07:58:00.833Z,25.45
2022-08-16T08:00:00.079Z,24.26
2022-08-16T08:02:00.861Z,23.71
2022-08-16T08:04:02.522Z,23.71
2022-08-16T08:06:03.151Z,23.47
2022-08-16T08:08:11.424Z,24
2022-08-16T08:10:05.813Z,24.17
2022-08-16T08:12:07.452Z,23.81
2022-08-16T08:14:08.888Z,23.9
2022-08-16T08:18:29.097Z,23.64
2022-08-16T08:20:12.857Z,23.57
2022-08-16T08:22:19.056Z,23.17
2022-08-16T08:24:15.865Z,23.35
2022-08-16T08:26:17.390Z,23.21
2022-08-16T08:28:18.083Z,23.26
2022-08-16T08:30:50.780Z,23.84
2022-08-16T08:32:51.282Z,23.95
2022-08-16T08:34:22.184Z,24.32
2022-08-16T08:36:22.665Z,24.41
2022-08-16T08:38:43.603Z,24.83
2022-08-16T08:40:26.551Z,25.54
2022-08-16T08:42:26.805Z,25.55
2022-08-16T08:44:27.774Z,25.29
2022-08-16T08:46:29.021Z,24.82
2022-08-16T08:48:33.220Z,24.4
2022-08-16T08:50:32.513Z,24.45
2022-08-16T08:52:34.041Z,24.34
2022-08-16T08:54:35.029Z,24.51
2022-08-16T08:56:36.033Z,24.78
2022-08-16T08:58:37.599Z,24.69
2022-08-16T09:00:50.289Z,24.47
2022-08-16T09:02:40.168Z,24.43
2022-08-16T09:04:41.522Z,24.48
2022-08-16T09:06:43.877Z,24.35
2022-08-16T09:08:47.293Z,24.68
2022-08-16T09:10:45.878Z,24.47
2022-08-16T09:12:47.694Z,24.65
2022-08-16T09:14:49.626Z,25.12
2022-08-16T09:17:02.518Z,25.28
2022-08-16T09:18:54.968Z,25.13
2022-08-16T09:20:55.108Z,24.78
2022-08-16T09:22:54.871Z,24.85
2022-08-16T09:24:58.093Z,25.28
2022-08-16T09:26:56.858Z,25.18
2022-08-16T09:29:14.117Z,25.27
2022-08-16T09:30:58.905Z,25.34
2022-08-16T09:33:00.297Z,25.57
2022-08-16T09:35:01.217Z,25.92
2022-08-16T09:37:02.103Z,25.94
2022-08-16T09:39:03.551Z,25.56
2022-08-16T09:41:05.202Z,25.77
2022-08-16T09:43:07.666Z,25.57
2022-08-16T09:45:09.963Z,25.38
2022-08-16T09:47:10.226Z,25.47
2022-08-16T09:49:12.061Z,25.03
2022-08-16T09:51:12.172Z,24.85
2022-08-16T09:53:14.907Z,24.72
2022-08-16T09:55:15.977Z,24.59
2022-08-16T09:57:16.830Z,24.74
2022-08-16T09:59:18.282Z,24.95
2022-08-16T10:01:19.322Z,25.08
2022-08-16T10:03:20.214Z,24.84
2022-08-16T10:05:21.751Z,25.06
2022-08-16T10:07:23.050Z,25.25
2022-08-16T10:09:23.934Z,25.21
2022-08-16T10:11:25.469Z,24.99
2022-08-16T10:13:27.149Z,24.9
2022-08-16T10:15:30.113Z,24.9
2022-08-16T10:17:29.529Z,24.71
2022-08-16T10:19:31.834Z,24.53
2022-08-16T10:21:31.994Z,24.59
2022-08-16T10:23:32.631Z,24.69
2022-08-16T10:27:00.392Z,24.86
2022-08-16T10:27:45.992Z,24.96
2022-08-16T10:29:59.769Z,25
2022-08-16T10:31:43.360Z,24.75
2022-08-16T10:33:40.186Z,24.47
2022-08-16T10:35:46.341Z,24.79
2022-08-16T10:37:42.179Z,24.56
2022-08-16T10:39:43.530Z,25.21
2022-08-16T10:41:45.134Z,25.77
2022-08-16T10:43:45.500Z,25.18
2022-08-16T10:45:57.332Z,25.31
2022-08-16T10:47:48.182Z,25.45
2022-08-16T10:49:49.981Z,25.51
2022-08-16T10:52:00.903Z,25.73
2022-08-16T10:53:53.271Z,25.57
2022-08-16T10:55:55.932Z,25.48
2022-08-16T10:57:56.583Z,25.51
2022-08-16T10:59:58.603Z,25.64
2022-08-16T11:04:01.320Z,25.16
2022-08-16T11:06:03.468Z,25
2022-08-16T11:08:05.347Z,25
2022-08-16T11:10:21.427Z,24.86
2022-08-16T11:12:14.120Z,24.89
2022-08-16T11:14:11.554Z,24.83
2022-08-16T11:16:26.737Z,24.7
2022-08-16T11:18:49.124Z,24.83
2022-08-16T11:20:42.431Z,24.91
2022-08-16T11:22:23.436Z,25
2022-08-16T11:24:37.587Z,25.09
2022-08-16T11:26:23.536Z,25.51
2022-08-16T11:29:12.156Z,25.9
2022-08-16T11:30:20.218Z,26.35
2022-08-16T11:32:22.804Z,26.42
2022-08-16T11:34:22.357Z,26.53
2022-08-16T11:36:24.874Z,26.59
2022-08-16T11:38:47.743Z,27.04
2022-08-16T11:40:32.634Z,26.84
2022-08-16T11:42:29.552Z,26.61
2022-08-16T11:44:36.576Z,26.7
2022-08-16T11:46:34.234Z,26.43
2022-08-16T11:48:30.948Z,26.18
2022-08-16T11:50:31.821Z,26.12
2022-08-16T11:52:33.221Z,26.11
2022-08-16T11:54:36.676Z,26.21
2022-08-16T11:56:40.019Z,26.49
2022-08-16T11:58:37.179Z,27.33
2022-08-16T12:00:50.869Z,28.27
2022-08-16T12:02:40.077Z,28.54
2022-08-16T12:04:41.801Z,28.18
2022-08-16T12:06:43.169Z,27.66
2022-08-16T12:08:44.121Z,27.26
2022-08-16T12:10:46.132Z,27.04
2022-08-16T12:12:47.757Z,27.61
2022-08-16T12:14:48.566Z,28.06
2022-08-16T12:16:53.633Z,28.79
2022-08-16T12:18:50.971Z,28.87
2022-08-16T12:20:55.168Z,29.53
2022-08-16T12:22:53.613Z,30.05
2022-08-16T12:24:54.943Z,29.82
2022-08-16T12:26:55.885Z,29.14
2022-08-16T12:27:39.665Z,29.07
2022-08-16T12:29:41.295Z,30.05
2022-08-16T12:31:56.820Z,29.8
2022-08-16T12:33:44.736Z,29.45
2022-08-16T12:35:45.648Z,28.67
2022-08-16T12:37:47.264Z,28.83
2022-08-16T12:39:51.069Z,28.39
2022-08-16T12:41:49.035Z,28.35
2022-08-16T12:43:49.975Z,29.06
2022-08-16T12:45:51.557Z,29.76
2022-08-16T12:48:00.911Z,29.91
2022-08-16T12:49:54.182Z,30.09
2022-08-16T12:51:57.578Z,29.71
2022-08-16T12:53:57.038Z,29.94
2022-08-16T12:55:58.698Z,30.42
2022-08-16T12:58:00.505Z,30.29
2022-08-16T13:00:01.333Z,29.83
2022-08-16T13:02:02.821Z,30.19
2022-08-16T13:04:11.703Z,29.56
2022-08-16T13:06:05.832Z,29.85
2022-08-16T13:08:07.250Z,29.56
2022-08-16T13:10:20.971Z,29.32
2022-08-16T13:12:09.853Z,28.83
2022-08-16T13:14:19.163Z,29.2
2022-08-16T13:16:15.564Z,29.65
2022-08-16T13:18:24.384Z,30.31
2022-08-16T13:20:14.085Z,30.06
2022-08-16T13:22:18.556Z,29.98
2022-08-16T13:24:16.830Z,30.08
2022-08-16T13:26:18.529Z,29.37
2022-08-16T13:28:19.941Z,29.59
2022-08-16T13:30:21.972Z,29.06
2022-08-16T13:32:39.538Z,28.55
2022-08-16T13:34:23.882Z,28.76
2022-08-16T13:36:45.966Z,29.59
2022-08-16T13:38:28.283Z,30.01
2022-08-16T13:40:28.050Z,29.61
2022-08-16T13:42:29.191Z,29.77
2022-08-16T13:44:35.993Z,30.27
2022-08-16T13:46:31.875Z,30.53
2022-08-16T13:48:37.229Z,30.21
2022-08-16T13:50:49.463Z,30.26
2022-08-16T13:52:39.917Z,29.83
2022-08-16T13:54:37.422Z,30.38
2022-08-16T13:56:39.865Z,30.7
2022-08-16T13:58:54.662Z,30.32
2022-08-16T14:00:42.019Z,30.44
2022-08-16T14:02:43.603Z,30.38
2022-08-16T14:04:44.539Z,30.88
2022-08-16T14:06:45.879Z,31.19
2022-08-16T14:08:50.379Z,31.22
2022-08-16T14:10:47.479Z,31.76
2022-08-16T14:12:48.936Z,31.81
2022-08-16T14:14:52.495Z,30.83
2022-08-16T14:16:52.230Z,31.08
2022-08-16T14:18:53.217Z,31.8
2022-08-16T14:20:53.996Z,31.35
2022-08-16T14:22:55.295Z,31.53
2022-08-16T14:24:56.210Z,30.74
2022-08-16T14:26:57.164Z,30.26
2022-08-16T14:29:02.747Z,30.01
2022-08-16T14:31:00.055Z,30.4
2022-08-16T14:33:01.481Z,30.1
2022-08-16T14:35:02.897Z,30.1
2022-08-16T14:37:03.633Z,30.54
2022-08-16T14:39:04.403Z,30.61
2022-08-16T14:41:06.897Z,30.31
2022-08-16T14:43:07.504Z,29.79
2022-08-16T14:45:08.479Z,30.62
2022-08-16T14:47:10.128Z,30.65
2022-08-16T14:49:11.793Z,31.14
2022-08-16T14:51:12.991Z,31.09
2022-08-16T14:53:14.041Z,31.3
2022-08-16T14:55:14.691Z,31.28
2022-08-16T14:57:16.252Z,31.43
2022-08-16T14:59:17.291Z,31.53
2022-08-16T15:01:18.789Z,31.09
2022-08-16T15:03:21.079Z,31.45
2022-08-16T15:05:21.167Z,31.5
2022-08-16T15:07:23.107Z,31.72
2022-08-16T15:09:24.310Z,31.25
2022-08-16T15:11:25.626Z,31.56
2022-08-16T15:13:26.777Z,31.25
2022-08-16T15:15:27.882Z,31.37
2022-08-16T15:17:33.793Z,31.6
2022-08-16T15:19:30.683Z,31.25
2022-08-16T15:21:31.954Z,30.86
2022-08-16T15:23:33.809Z,30.77
2022-08-16T15:25:34.165Z,31.25
2022-08-16T15:27:35.693Z,31.42
2022-08-16T15:29:36.342Z,31.26
2022-08-16T15:31:37.814Z,31.37
2022-08-16T15:33:39.256Z,30.57
2022-08-16T15:35:40.199Z,30.52
2022-08-16T15:37:42.155Z,31.59
2022-08-16T15:39:42.513Z,32.09
2022-08-16T15:41:44.109Z,31.99
2022-08-16T15:43:45.167Z,31.77
2022-08-16T15:45:45.961Z,32.64
2022-08-16T15:47:48.320Z,32.8
2022-08-16T15:49:53.190Z,31.97
2022-08-16T15:51:50.431Z,32.17
2022-08-16T15:53:55.961Z,32.31
2022-08-16T15:55:52.736Z,32.22
2022-08-16T15:57:53.801Z,31.96
2022-08-16T15:59:56.212Z,31.75
2022-08-16T16:01:56.565Z,31.22
2022-08-16T16:03:57.252Z,31.18
2022-08-16T16:05:58.387Z,30.94
2022-08-16T16:08:11.327Z,31.31
2022-08-16T16:10:00.379Z,31.52
2022-08-16T16:12:01.544Z,31.46
2022-08-16T16:14:02.298Z,31.31
2022-08-16T16:16:03.478Z,31.2
2022-08-16T16:18:05.067Z,31.52
2022-08-16T16:20:05.705Z,31.11
2022-08-16T16:22:06.708Z,30.73
2022-08-16T16:24:21.682Z,30.56
2022-08-16T16:26:09.391Z,30.99
2022-08-16T16:28:12.607Z,30.95
2022-08-16T16:30:32.878Z,30.38
2022-08-16T16:32:12.977Z,30.34
2022-08-16T16:34:14.195Z,30.5
2022-08-16T16:36:15.611Z,30.29
2022-08-16T16:38:16.453Z,30.53
2022-08-16T16:40:24.025Z,30.87
2022-08-16T16:42:25.565Z,30.96
2022-08-16T16:44:22.677Z,30.88
2022-08-16T16:46:39.110Z,30.97
2022-08-16T16:48:22.649Z,31.21
2022-08-16T16:50:23.771Z,31.14
2022-08-16T16:52:31.472Z,30.85
2022-08-16T16:54:25.770Z,30.41
2022-08-16T16:56:27.627Z,30.27
2022-08-16T16:58:29.139Z,29.9
2022-08-16T17:00:30.446Z,29.77
2022-08-16T17:02:39.058Z,30.02
2022-08-16T17:04:32.939Z,30.13
2022-08-16T17:06:34.060Z,30.35
2022-08-16T17:08:34.960Z,30.08
2022-08-16T17:10:45.785Z,29.88
2022-08-16T17:12:46.378Z,29.87
2022-08-16T17:14:38.734Z,29.85
2022-08-16T17:16:43.577Z,29.57
2022-08-16T17:19:15.864Z,29.51
2022-08-16T17:20:41.995Z,29.38
2022-08-16T17:22:43.682Z,29.39
2022-08-16T17:24:45.215Z,29.4
2022-08-16T17:26:45.033Z,29.32
2022-08-16T17:28:59.231Z,29.06
2022-08-16T17:30:47.978Z,28.61
2022-08-16T17:32:50.451Z,28.33
2022-08-16T17:34:50.901Z,28.22
2022-08-16T17:36:52.892Z,28.03
2022-08-16T17:38:52.544Z,27.85
2022-08-16T17:40:55.552Z,27.77
2022-08-16T17:42:55.002Z,27.68
2022-08-16T17:44:56.218Z,27.57
2022-08-16T17:46:57.265Z,27.45
2022-08-16T17:48:58.405Z,27.36
2022-08-16T17:50:59.402Z,27.21
2022-08-16T17:53:00.581Z,27.16
2022-08-16T17:55:02.411Z,27.05
2022-08-16T17:57:03.408Z,26.97
2022-08-16T17:59:04.624Z,27.01
2022-08-16T18:01:06.434Z,26.96
2022-08-16T18:03:07.603Z,26.89
2022-08-16T18:05:08.861Z,26.86
2022-08-16T18:07:09.999Z,26.86
2022-08-16T18:09:11.143Z,26.81
2022-08-16T18:11:12.469Z,26.62
2022-08-16T18:13:14.086Z,26.35
2022-08-16T18:15:15.460Z,26.08
2022-08-16T18:17:16.869Z,25.88
2022-08-16T18:19:18.518Z,25.83
2022-08-16T18:21:19.976Z,25.75
2022-08-16T18:23:21.902Z,25.47
2022-08-16T18:25:23.111Z,25.35
2022-08-16T18:27:25.769Z,25.4
2022-08-16T18:29:26.434Z,25.49
2022-08-16T18:31:27.487Z,25.16
2022-08-16T18:33:28.807Z,24.85
2022-08-16T18:35:30.500Z,24.79
2022-08-16T18:37:31.266Z,24.47
2022-08-16T18:39:32.635Z,24.25
2022-08-16T18:41:33.998Z,24.2
2022-08-16T18:43:54.586Z,24.09
2022-08-16T18:45:36.825Z,24.11
2022-08-16T18:47:38.194Z,24.18
2022-08-16T18:49:39.261Z,24.09
2022-08-16T18:51:40.770Z,24.01
2022-08-16T18:53:41.689Z,23.87
2022-08-16T18:55:45.190Z,23.81
2022-08-16T18:57:44.204Z,23.93
2022-08-16T19:01:46.827Z,23.69
2022-08-16T19:03:47.904Z,23.52
2022-08-16T19:05:49.112Z,23.33
2022-08-16T19:07:50.837Z,23.08
2022-08-16T19:09:52.318Z,22.87
2022-08-16T19:11:53.329Z,22.73
2022-08-16T19:12:37.518Z,22.61
2022-08-16T19:14:38.101Z,22.36
2022-08-16T19:16:39.589Z,22.24
2022-08-16T19:18:41.214Z,22.2
2022-08-16T19:20:42.184Z,22.24
2022-08-16T19:23:01.982Z,22.27
2022-08-16T19:24:45.079Z,22.19
2022-08-16T19:26:46.887Z,22.16
2022-08-16T19:28:50.423Z,22.28
2022-08-16T19:30:49.610Z,22.32
2022-08-16T19:32:51.204Z,22.22
2022-08-16T19:34:52.797Z,22.19
2022-08-16T19:36:54.427Z,22.17
2022-08-16T19:38:55.506Z,22.07
2022-08-16T19:40:57.070Z,21.95
2022-08-16T19:42:57.960Z,21.8
2022-08-16T19:44:59.125Z,21.63
2022-08-16T19:47:00.475Z,21.35
2022-08-16T19:49:01.992Z,21.21
2022-08-16T19:51:03.611Z,21.12
2022-08-16T19:53:12.908Z,21.12
2022-08-16T19:55:05.564Z,21.03
2022-08-16T19:57:07.229Z,21.02
2022-08-16T19:59:21.697Z,21.05
2022-08-16T20:01:09.775Z,21.02
2022-08-16T20:03:11.196Z,20.88
2022-08-16T20:05:12.114Z,20.82
2022-08-16T20:07:13.594Z,20.82
2022-08-16T20:09:15.437Z,20.77
2022-08-16T20:11:15.653Z,20.59
2022-08-16T20:13:16.862Z,20.38
2022-08-16T20:15:18.175Z,20.2
2022-08-16T20:17:19.365Z,20.23
2022-08-16T20:19:20.301Z,20.25
2022-08-16T20:21:21.785Z,20.24
2022-08-16T20:23:24.304Z,20.22
2022-08-16T20:25:28.236Z,20.22
2022-08-16T20:27:26.167Z,20.25
2022-08-16T20:29:27.176Z,20.34
2022-08-16T20:31:28.553Z,20.37
2022-08-16T20:33:30.221Z,20.39
2022-08-16T20:37:32.490Z,20.31
2022-08-16T20:39:33.615Z,20.1
2022-08-16T20:41:34.557Z,19.9
2022-08-16T20:43:35.494Z,19.74
2022-08-16T20:45:36.414Z,19.8
2022-08-16T20:47:38.072Z,19.82
2022-08-16T20:49:39.331Z,19.79
2022-08-16T20:51:47.164Z,19.69
2022-08-16T20:53:42.004Z,19.54
2022-08-16T20:55:43.217Z,19.49
2022-08-16T20:57:44.124Z,19.46
2022-08-16T20:59:49.492Z,19.44
2022-08-16T21:01:49.985Z,19.32
2022-08-16T21:03:48.763Z,19.18
2022-08-16T21:05:49.680Z,19.01
2022-08-16T21:07:50.846Z,19.05
2022-08-16T21:09:51.790Z,19.13
2022-08-16T21:11:53.022Z,19.16
2022-08-16T21:14:00.143Z,19.32
2022-08-16T21:15:55.797Z,19.21
2022-08-16T21:17:56.852Z,19.1
2022-08-16T21:19:58.659Z,18.97
2022-08-16T21:22:00.134Z,18.86
2022-08-16T21:24:01.554Z,18.77
2022-08-16T21:26:04.150Z,18.78
2022-08-16T21:28:39.757Z,18.7
2022-08-16T21:30:05.695Z,18.7
2022-08-16T21:32:07.258Z,18.58
2022-08-16T21:34:08.967Z,18.56
2022-08-16T21:36:10.312Z,18.5
2022-08-16T21:38:28.467Z,18.41
2022-08-16T21:40:12.849Z,18.52
2022-08-16T21:42:14.594Z,18.52
2022-08-16T21:44:16.313Z,18.42
2022-08-16T21:46:18.020Z,18.36
2022-08-16T21:48:19.060Z,18.34
2022-08-16T21:50:20.153Z,18.35
2022-08-16T21:52:26.150Z,18.3
2022-08-16T21:54:21.988Z,18.27
2022-08-16T21:56:22.908Z,18.38
2022-08-16T21:58:24.668Z,18.2
2022-08-16T22:00:26.485Z,18.1
2022-08-16T22:02:32.788Z,18.01
2022-08-16T22:04:36.322Z,18.09
2022-08-16T22:06:31.015Z,18.07
2022-08-16T22:08:31.905Z,17.91
2022-08-16T22:11:04.250Z,17.84
2022-08-16T22:12:34.845Z,17.75
2022-08-16T22:14:36.725Z,17.65
2022-08-16T22:16:38.013Z,17.48
2022-08-16T22:18:39.417Z,17.35
2022-08-16T22:20:40.629Z,17.33
2022-08-16T22:22:41.999Z,17.32
2022-08-16T22:24:43.669Z,17.48
2022-08-16T22:26:45.490Z,17.57
2022-08-16T22:28:46.902Z,17.61
2022-08-16T22:30:48.595Z,17.6
2022-08-16T22:32:50.071Z,17.5
2022-08-16T22:34:51.634Z,17.35
2022-08-16T22:36:52.825Z,17.26
2022-08-16T22:38:57.271Z,17.15
2022-08-16T22:40:55.829Z,17.18
2022-08-16T22:42:57.273Z,17.31
2022-08-16T22:44:58.345Z,17.28
2022-08-16T22:47:00.156Z,17.29
2022-08-16T22:51:03.328Z,17.17
2022-08-16T22:53:04.801Z,17.1
2022-08-16T22:55:05.784Z,17.07
2022-08-16T22:57:07.369Z,16.95
2022-08-16T22:59:08.804Z,16.99
2022-08-16T23:01:10.069Z,16.95
2022-08-16T23:03:11.531Z,16.86
2022-08-16T23:05:13.339Z,16.8
2022-08-16T23:07:15.220Z,16.88
2022-08-16T23:09:16.204Z,17.09
2022-08-16T23:11:17.231Z,16.97
2022-08-16T23:13:18.993Z,16.91
2022-08-16T23:15:20.562Z,16.83
2022-08-16T23:17:22.231Z,16.86
2022-08-16T23:19:23.405Z,16.82
2022-08-16T23:21:24.540Z,16.72
2022-08-16T23:23:26.432Z,16.7
2022-08-16T23:25:27.738Z,16.66
2022-08-16T23:27:29.182Z,16.54
2022-08-16T23:29:30.648Z,16.5
2022-08-16T23:31:31.991Z,16.47
2022-08-16T23:33:32.987Z,16.46
2022-08-16T23:35:45.097Z,16.55
2022-08-16T23:37:35.893Z,16.54
2022-08-16T23:39:37.385Z,16.46
2022-08-16T23:41:38.503Z,16.38
2022-08-16T23:43:39.601Z,16.37
2022-08-16T23:45:40.841Z,16.35
2022-08-16T23:47:42.087Z,16.3
2022-08-16T23:49:45.676Z,16.31
2022-08-16T23:51:44.977Z,16.24
2022-08-16T23:53:46.599Z,16.14
2022-08-16T23:55:47.826Z,16.09
2022-08-16T23:57:49.421Z,16.22
2022-08-16T23:59:52.313Z,16.25
